createdAt,value
2023-10-17T00:00:28.648Z,4.94
2023-10-17T00:05:32.716Z,5.22
2023-10-17T00:10:41.449Z,5.03
2023-10-17T00:15:47.465Z,5.04
2023-10-17T00:20:52.593Z,5.08
2023-10-17T00:25:56.208Z,5.15
2023-10-17T00:31:01.136Z,4.86
2023-10-17T00:36:05.301Z,4.98
2023-10-17T00:41:10.786Z,4.60
2023-10-17T00:46:30.432Z,4.65
2023-10-17T00:51:41.096Z,4.55
2023-10-17T00:56:45.186Z,4.64
2023-10-17T01:01:50.220Z,4.93
2023-10-17T01:06:56.236Z,4.99
2023-10-17T01:12:00.585Z,4.95
2023-10-17T01:17:08.969Z,4.91
2023-10-17T01:22:12.481Z,4.89
2023-10-17T01:27:17.849Z,4.57
2023-10-17T01:32:23.557Z,4.47
2023-10-17T01:37:28.823Z,4.55
2023-10-17T01:42:34.564Z,4.57
2023-10-17T01:47:39.628Z,4.52
2023-10-17T01:52:44.172Z,4.50
2023-10-17T01:57:49.456Z,4.43
2023-10-17T02:02:53.360Z,4.58
2023-10-17T02:07:57.030Z,4.63
2023-10-17T02:13:05.634Z,4.76
2023-10-17T02:18:16.507Z,4.55
2023-10-17T02:23:27.544Z,4.54
2023-10-17T02:28:46.133Z,4.46
2023-10-17T02:33:49.708Z,4.63
2023-10-17T02:38:53.577Z,4.67
2023-10-17T02:43:58.953Z,4.54
2023-10-17T02:49:08.299Z,4.49
2023-10-17T02:54:15.008Z,4.42
2023-10-17T02:59:23.352Z,4.51
2023-10-17T03:04:27.561Z,4.24
2023-10-17T03:09:40.158Z,4.08
2023-10-17T03:14:58.895Z,4.25
2023-10-17T03:20:02.610Z,4.18
2023-10-17T03:25:20.038Z,4.13
2023-10-17T03:30:25.975Z,4.04
2023-10-17T03:35:31.272Z,4.17
2023-10-17T03:40:42.648Z,3.97
2023-10-17T03:45:53.744Z,3.82
2023-10-17T03:51:10.269Z,3.93
2023-10-17T03:56:21.565Z,4.10
2023-10-17T04:01:28.231Z,3.87
2023-10-17T04:06:40.688Z,3.99
2023-10-17T04:11:47.380Z,3.99
2023-10-17T04:16:54.229Z,3.82
2023-10-17T04:22:18.389Z,3.88
2023-10-17T04:27:32.331Z,3.78
2023-10-17T04:32:39.842Z,3.51
2023-10-17T04:37:46.427Z,3.51
2023-10-17T04:42:58.351Z,3.54
2023-10-17T04:48:14.000Z,3.65
2023-10-17T04:53:29.698Z,3.83
2023-10-17T04:58:41.084Z,3.72
2023-10-17T05:03:51.907Z,4.03
2023-10-17T05:14:43.849Z,4.39
2023-10-17T05:20:04.753Z,4.80
2023-10-17T05:25:26.243Z,5.18
2023-10-17T05:30:48.658Z,5.45
2023-10-17T05:36:09.632Z,5.85
2023-10-17T05:41:44.025Z,6.31
2023-10-17T05:47:07.015Z,6.82
2023-10-17T05:52:27.860Z,7.37
2023-10-17T05:57:57.259Z,7.93
2023-10-17T06:03:19.516Z,8.47
2023-10-17T06:08:40.658Z,8.95
2023-10-17T06:14:02.165Z,9.52
2023-10-17T06:19:10.396Z,9.91
2023-10-17T06:24:41.340Z,10.19
2023-10-17T06:30:02.247Z,10.57
2023-10-17T06:35:22.278Z,11.19
2023-10-17T06:40:31.982Z,11.53
2023-10-17T06:45:38.494Z,12.02
2023-10-17T06:51:01.209Z,12.41
2023-10-17T06:56:11.139Z,12.78
2023-10-17T07:01:28.035Z,12.99
2023-10-17T07:06:37.578Z,13.27
2023-10-17T07:11:44.975Z,13.52
2023-10-17T07:16:49.946Z,13.86
2023-10-17T07:21:58.778Z,14.07
2023-10-17T07:27:05.071Z,14.24
2023-10-17T07:32:16.710Z,14.20
2023-10-17T07:37:25.563Z,14.54
2023-10-17T07:42:32.703Z,14.82
2023-10-17T07:47:36.517Z,14.97
2023-10-17T07:52:45.089Z,15.34
2023-10-17T07:57:53.284Z,15.65
2023-10-17T08:02:59.798Z,15.95
2023-10-17T08:08:09.897Z,16.38
2023-10-17T08:13:13.749Z,16.74
2023-10-17T08:18:17.731Z,16.59
2023-10-17T08:23:24.321Z,17.11
2023-10-17T08:28:34.603Z,17.22
2023-10-17T08:33:42.147Z,17.51
2023-10-17T08:38:48.855Z,18.10
2023-10-17T08:43:54.609Z,18.35
2023-10-17T08:48:58.735Z,18.79
2023-10-17T08:54:06.420Z,18.69
2023-10-17T08:59:13.182Z,17.85
2023-10-17T09:04:19.838Z,17.62
2023-10-17T09:09:24.818Z,18.24
2023-10-17T09:14:30.565Z,19.81
2023-10-17T09:19:41.547Z,20.58
2023-10-17T09:24:51.191Z,19.39
2023-10-17T09:29:57.285Z,19.72
2023-10-17T09:35:05.299Z,19.40
2023-10-17T09:40:15.678Z,19.51
2023-10-17T09:50:27.334Z,19.42
2023-10-17T09:55:33.483Z,20.99
2023-10-17T10:00:42.473Z,20.81
2023-10-17T10:05:46.244Z,19.75
2023-10-17T10:10:53.867Z,20.35
2023-10-17T10:16:02.644Z,20.24
2023-10-17T10:21:08.819Z,19.66
2023-10-17T10:26:20.667Z,18.69
2023-10-17T10:31:40.031Z,18.41
2023-10-17T10:36:44.782Z,18.06
2023-10-17T10:42:01.805Z,18.21
2023-10-17T10:47:08.388Z,18.16
2023-10-17T10:52:12.256Z,18.21
2023-10-17T10:57:18.407Z,18.24
2023-10-17T11:02:22.590Z,18.19
2023-10-17T11:07:26.593Z,18.15
2023-10-17T11:12:31.667Z,17.89
2023-10-17T11:17:36.168Z,17.92
2023-10-17T11:22:42.120Z,17.47
2023-10-17T11:27:54.737Z,17.77
2023-10-17T11:33:03.630Z,17.89
2023-10-17T11:38:09.978Z,17.67
2023-10-17T11:43:20.145Z,17.54
2023-10-17T11:48:30.712Z,17.23
2023-10-17T11:53:34.714Z,17.06
2023-10-17T11:58:39.933Z,17.02
2023-10-17T12:03:43.570Z,17.07
2023-10-17T12:08:47.164Z,16.91
2023-10-17T12:13:52.113Z,16.81
2023-10-17T12:18:57.705Z,16.68
2023-10-17T12:24:01.958Z,16.61
2023-10-17T12:29:06.978Z,16.64
2023-10-17T12:34:10.819Z,16.72
2023-10-17T12:39:15.977Z,16.68
2023-10-17T12:44:21.021Z,16.59
2023-10-17T12:49:25.828Z,16.43
2023-10-17T12:54:29.830Z,16.31
2023-10-17T12:59:35.012Z,16.30
2023-10-17T13:04:38.717Z,16.30
2023-10-17T13:09:42.962Z,16.44
2023-10-17T13:14:47.877Z,16.36
2023-10-17T13:19:52.966Z,16.20
2023-10-17T13:24:56.685Z,15.90
2023-10-17T13:30:01.849Z,16.04
2023-10-17T13:35:09.383Z,15.86
2023-10-17T13:40:13.317Z,15.72
2023-10-17T13:45:18.536Z,15.61
2023-10-17T13:50:23.020Z,15.35
2023-10-17T13:55:27.627Z,15.32
2023-10-17T14:00:44.441Z,15.27
2023-10-17T14:05:49.036Z,15.35
2023-10-17T14:10:52.940Z,15.22
2023-10-17T14:15:58.753Z,15.18
2023-10-17T14:21:18.479Z,15.15
2023-10-17T14:26:22.294Z,14.92
2023-10-17T14:31:27.289Z,14.88
2023-10-17T14:36:31.076Z,14.80
2023-10-17T14:41:36.637Z,14.77
2023-10-17T14:46:41.576Z,14.79
2023-10-17T14:51:45.171Z,14.72
2023-10-17T14:56:48.757Z,14.57
2023-10-17T15:01:53.762Z,14.49
2023-10-17T15:06:57.586Z,14.40
2023-10-17T15:12:01.102Z,14.33
2023-10-17T15:17:06.633Z,14.27
2023-10-17T15:22:10.510Z,14.23
2023-10-17T15:27:15.749Z,14.23
2023-10-17T15:32:20.733Z,14.19
2023-10-17T15:37:24.218Z,14.16
2023-10-17T15:42:28.188Z,13.95
2023-10-17T15:47:33.348Z,13.93
2023-10-17T15:52:37.096Z,13.84
2023-10-17T15:57:41.777Z,13.82
2023-10-17T16:02:46.961Z,13.79
2023-10-17T16:07:50.668Z,13.81
2023-10-17T16:12:54.271Z,13.62
2023-10-17T16:17:59.172Z,13.64
2023-10-17T16:23:02.864Z,13.59
2023-10-17T16:28:06.886Z,13.57
2023-10-17T16:33:14.291Z,13.56
2023-10-17T16:38:17.846Z,13.47
2023-10-17T16:43:21.856Z,13.40
2023-10-17T16:48:28.201Z,13.44
2023-10-17T16:53:33.076Z,13.37
2023-10-17T16:58:39.387Z,13.29
2023-10-17T17:03:46.227Z,13.25
2023-10-17T17:08:50.636Z,13.22
2023-10-17T17:13:54.833Z,13.16
2023-10-17T17:19:00.982Z,13.07
2023-10-17T17:24:09.427Z,13.08
2023-10-17T17:29:13.168Z,13.01
2023-10-17T17:34:20.639Z,12.96
2023-10-17T17:39:25.566Z,12.94
2023-10-17T17:44:29.381Z,12.99
2023-10-17T17:49:34.719Z,12.95
2023-10-17T17:54:38.286Z,12.97
2023-10-17T17:59:42.721Z,12.99
2023-10-17T18:04:50.526Z,12.97
2023-10-17T18:09:54.185Z,13.02
2023-10-17T18:14:57.806Z,12.95
2023-10-17T18:20:02.709Z,12.91
2023-10-17T18:25:07.460Z,12.83
2023-10-17T18:30:12.594Z,12.82
2023-10-17T18:35:17.741Z,12.80
2023-10-17T18:40:22.151Z,12.78
2023-10-17T18:45:26.834Z,12.80
2023-10-17T18:50:33.106Z,12.72
2023-10-17T18:55:37.008Z,12.74
2023-10-17T19:00:43.437Z,12.80
2023-10-17T19:05:48.479Z,12.76
2023-10-17T19:10:54.039Z,12.73
2023-10-17T19:15:58.874Z,12.73
2023-10-17T19:21:06.403Z,12.73
2023-10-17T19:26:13.139Z,12.73
2023-10-17T19:31:18.301Z,12.71
2023-10-17T19:36:23.421Z,12.69
2023-10-17T19:41:27.058Z,12.64
2023-10-17T19:46:33.400Z,12.63
2023-10-17T19:51:39.497Z,12.55
2023-10-17T19:56:43.386Z,12.47
2023-10-17T20:01:46.948Z,12.42
2023-10-17T20:06:55.426Z,12.38
2023-10-17T20:12:00.321Z,12.36
2023-10-17T20:17:04.518Z,12.29
2023-10-17T20:22:11.657Z,12.27
2023-10-17T20:27:15.181Z,12.14
2023-10-17T20:32:22.572Z,12.10
2023-10-17T20:37:27.614Z,12.11
2023-10-17T20:42:31.137Z,12.03
2023-10-17T20:47:34.816Z,12.03
2023-10-17T20:52:39.937Z,12.03
2023-10-17T20:57:43.524Z,12.03
2023-10-17T21:02:47.302Z,11.99
2023-10-17T21:07:52.304Z,11.93
2023-10-17T21:12:56.222Z,11.93
2023-10-17T21:17:59.867Z,11.92
2023-10-17T21:23:05.125Z,11.89
2023-10-17T21:28:10.018Z,11.88
2023-10-17T21:33:13.549Z,11.92
2023-10-17T21:38:18.526Z,11.89
2023-10-17T21:43:22.051Z,11.80
2023-10-17T21:48:25.624Z,11.76
2023-10-17T21:53:30.745Z,11.67
2023-10-17T21:58:36.575Z,11.60
2023-10-17T22:03:42.898Z,11.57
2023-10-17T22:08:49.775Z,11.55
2023-10-17T22:13:53.425Z,11.50
2023-10-17T22:18:57.193Z,11.50
2023-10-17T22:24:02.930Z,11.47
2023-10-17T22:29:06.866Z,11.40
2023-10-17T22:34:10.997Z,11.43
2023-10-17T22:39:15.943Z,11.42
2023-10-17T22:44:19.484Z,11.35
2023-10-17T22:49:23.099Z,11.36
2023-10-17T22:54:29.514Z,11.19
2023-10-17T22:59:33.114Z,11.16
2023-10-17T23:04:36.601Z,11.07
2023-10-17T23:09:41.504Z,10.94
2023-10-17T23:14:45.334Z,10.65
2023-10-17T23:19:48.844Z,10.60
2023-10-17T23:24:53.771Z,10.61
2023-10-17T23:29:59.080Z,10.58
2023-10-17T23:35:04.104Z,10.34
2023-10-17T23:40:11.207Z,10.01
2023-10-17T23:45:16.807Z,9.93
2023-10-17T23:50:22.706Z,10.08
2023-10-17T23:55:27.635Z,10.29
